Tiros, Brazil
Current Conditions -  °F | °C
As of 2:00 AM on Monday 22 Dec 2014 (Local Time) from SBUR Reporting Station
Light Rain Light Rain  
Wind Chill: 21°   Ceiling: Unl
Heat Index: 21°   Visibility: 6mi
Dew Point: 21°   Wind: 8mph
Humidity: 100%   Direction: 20°NNE
Pressure: 30.03"   Gusts: NA
Location:  19°S, 45.96°W
Report Text: SBUR 220400Z 02007KT 9999 -RA SCT020 21/21 Q1017
Loading
Personal Weather Stations






























Interactive Weather Map New forecast layout! Learn more

10-Day Weather Forecast

Advertisements
Track Severe Weather on mobile